createdAt,value
2022-08-11T00:01:47.894Z,64.02
2022-08-11T00:04:55.129Z,64.02
2022-08-11T00:08:01.298Z,64.00
2022-08-11T00:11:09.642Z,64.02
2022-08-11T00:14:20.624Z,64.07
2022-08-11T00:17:31.189Z,64.18
2022-08-11T00:20:41.153Z,64.24
2022-08-11T00:23:54.053Z,64.37
2022-08-11T00:26:59.516Z,64.35
2022-08-11T00:30:06.145Z,64.34
2022-08-11T00:33:12.011Z,64.57
2022-08-11T00:36:23.444Z,64.57
2022-08-11T00:39:33.397Z,64.55
2022-08-11T00:42:56.545Z,64.67
2022-08-11T00:46:28.979Z,64.83
2022-08-11T00:49:46.507Z,64.95
2022-08-11T00:53:13.932Z,64.98
2022-08-11T00:56:49.546Z,64.98
2022-08-11T01:00:16.622Z,65.04
2022-08-11T01:03:35.800Z,65.03
2022-08-11T01:08:01.222Z,65.16
2022-08-11T01:11:13.894Z,65.13
2022-08-11T01:15:02.041Z,65.26
2022-08-11T01:18:50.620Z,65.33
2022-08-11T01:22:27.793Z,65.36
2022-08-11T01:25:57.943Z,65.42
2022-08-11T01:29:42.611Z,65.57
2022-08-11T01:33:24.770Z,65.67
2022-08-11T01:37:02.627Z,65.79
2022-08-11T01:40:26.072Z,65.82
2022-08-11T01:44:28.848Z,65.86
2022-08-11T01:47:54.307Z,65.93
2022-08-11T01:51:17.158Z,66.03
2022-08-11T01:54:32.509Z,65.89
2022-08-11T01:57:45.611Z,66.02
2022-08-11T02:00:59.214Z,66.06
2022-08-11T02:04:19.712Z,66.10
2022-08-11T02:07:35.485Z,66.16
2022-08-11T02:11:07.839Z,66.18
2022-08-11T02:14:25.925Z,66.30
2022-08-11T02:17:49.738Z,66.32
2022-08-11T02:21:19.147Z,66.40
2022-08-11T02:24:35.259Z,66.44
2022-08-11T02:27:46.613Z,66.44
2022-08-11T02:32:10.930Z,66.56
2022-08-11T02:35:00.177Z,66.61
2022-08-11T02:38:18.452Z,66.68
2022-08-11T02:41:50.171Z,66.76
2022-08-11T02:45:18.020Z,66.94
2022-08-11T02:49:05.699Z,66.95
2022-08-11T02:52:21.283Z,67.05
2022-08-11T02:55:56.425Z,67.04
2022-08-11T02:59:22.664Z,67.07
2022-08-11T03:02:41.379Z,67.13
2022-08-11T03:06:03.689Z,67.20
2022-08-11T03:09:19.053Z,67.25
2022-08-11T03:12:53.779Z,67.24
2022-08-11T03:16:36.591Z,67.37
2022-08-11T03:19:54.687Z,67.48
2022-08-11T03:23:19.671Z,67.48
2022-08-11T03:26:31.916Z,67.51
2022-08-11T03:29:44.054Z,67.55
2022-08-11T03:33:32.955Z,67.59
2022-08-11T03:37:16.959Z,67.69
2022-08-11T03:41:00.226Z,67.82
2022-08-11T03:44:19.755Z,67.81
2022-08-11T03:47:58.392Z,67.87
2022-08-11T03:51:13.780Z,67.99
2022-08-11T03:54:30.269Z,67.98
2022-08-11T03:58:05.952Z,68.11
2022-08-11T04:01:49.597Z,68.14
2022-08-11T04:05:16.336Z,68.21
2022-08-11T04:08:42.148Z,68.20
2022-08-11T04:16:11.444Z,68.19
2022-08-11T04:20:04.253Z,68.23
2022-08-11T04:24:35.147Z,68.39
2022-08-11T04:27:14.604Z,68.31
2022-08-11T04:30:28.973Z,68.37
2022-08-11T04:33:56.604Z,68.39
2022-08-11T04:37:57.089Z,68.48
2022-08-11T04:42:17.932Z,69.30
2022-08-11T04:45:50.604Z,69.40
2022-08-11T04:50:00.544Z,69.57
2022-08-11T04:53:41.956Z,69.42
2022-08-11T04:57:07.258Z,69.47
2022-08-11T05:00:32.274Z,69.21
2022-08-11T05:04:55.357Z,69.00
2022-08-11T05:08:35.770Z,68.82
2022-08-11T05:12:03.901Z,68.75
2022-08-11T05:15:50.956Z,68.33
2022-08-11T05:19:18.048Z,68.18
2022-08-11T05:22:47.386Z,68.18
2022-08-11T05:26:47.077Z,67.99
2022-08-11T05:30:05.121Z,67.63
2022-08-11T05:33:33.833Z,67.55
2022-08-11T05:36:49.514Z,67.19
2022-08-11T05:40:25.833Z,67.00
2022-08-11T05:44:20.867Z,66.82
2022-08-11T05:47:39.794Z,66.62
2022-08-11T05:51:11.665Z,66.52
2022-08-11T05:54:40.703Z,66.23
2022-08-11T05:57:51.415Z,65.93
2022-08-11T06:00:59.244Z,65.55
2022-08-11T06:04:17.595Z,65.30
2022-08-11T06:07:47.341Z,64.99
2022-08-11T06:11:01.113Z,64.72
2022-08-11T06:14:07.437Z,64.68
2022-08-11T06:17:14.299Z,64.44
2022-08-11T06:20:21.549Z,64.13
2022-08-11T06:23:36.249Z,63.92
2022-08-11T06:27:11.371Z,63.64
2022-08-11T06:30:15.220Z,63.26
2022-08-11T06:33:30.959Z,63.07
2022-08-11T06:36:41.367Z,62.65
2022-08-11T06:39:53.693Z,62.37
2022-08-11T06:43:03.485Z,62.34
2022-08-11T06:46:12.434Z,61.70
2022-08-11T06:49:56.331Z,61.48
2022-08-11T06:53:03.577Z,61.16
2022-08-11T06:56:29.185Z,60.85
2022-08-11T06:59:55.546Z,60.40
2022-08-11T07:03:09.372Z,60.04
2022-08-11T07:06:35.739Z,59.58
2022-08-11T07:10:44.176Z,59.13
2022-08-11T07:14:11.212Z,58.40
2022-08-11T07:17:21.009Z,58.19
2022-08-11T07:20:44.292Z,57.77
2022-08-11T07:24:07.806Z,57.57
2022-08-11T07:27:37.655Z,57.15
2022-08-11T07:30:44.872Z,57.11
2022-08-11T07:34:07.014Z,56.80
2022-08-11T07:37:20.708Z,56.16
2022-08-11T07:40:27.745Z,55.94
2022-08-11T07:43:36.508Z,55.62
2022-08-11T07:47:04.035Z,55.23
2022-08-11T07:50:29.758Z,54.59
2022-08-11T07:53:41.773Z,54.51
2022-08-11T07:58:13.833Z,54.10
2022-08-11T08:01:22.038Z,54.20
2022-08-11T08:04:47.480Z,53.77
2022-08-11T08:08:11.144Z,53.36
2022-08-11T08:11:38.535Z,53.05
2022-08-11T08:15:01.911Z,52.71
2022-08-11T08:18:26.769Z,52.73
2022-08-11T08:21:33.725Z,52.34
2022-08-11T08:24:42.059Z,52.08
2022-08-11T08:27:48.560Z,51.30
2022-08-11T08:30:56.400Z,51.34
2022-08-11T08:34:02.152Z,51.03
2022-08-11T08:37:15.771Z,51.23
2022-08-11T08:40:34.406Z,50.57
2022-08-11T08:43:48.555Z,50.57
2022-08-11T08:46:59.187Z,50.19
2022-08-11T08:50:09.364Z,50.06
2022-08-11T08:53:24.785Z,50.24
2022-08-11T08:56:34.599Z,50.08
2022-08-11T08:59:49.282Z,49.54
2022-08-11T09:02:57.801Z,49.14
2022-08-11T09:06:03.311Z,49.10
2022-08-11T09:09:08.966Z,48.94
2022-08-11T09:12:15.543Z,48.69
2022-08-11T09:15:22.392Z,48.87
2022-08-11T09:18:33.502Z,48.41
2022-08-11T09:21:49.411Z,48.25
2022-08-11T09:25:13.603Z,48.14
2022-08-11T09:28:20.899Z,48.09
2022-08-11T09:31:26.927Z,47.79
2022-08-11T09:34:36.807Z,47.76
2022-08-11T09:38:01.307Z,47.80
2022-08-11T09:41:09.792Z,47.44
2022-08-11T09:44:34.371Z,47.23
2022-08-11T09:47:40.610Z,46.86
2022-08-11T09:50:49.328Z,46.64
2022-08-11T09:54:02.716Z,47.08
2022-08-11T09:57:27.221Z,47.27
2022-08-11T10:00:37.395Z,46.47
2022-08-11T10:03:45.014Z,46.42
2022-08-11T10:07:04.843Z,46.60
2022-08-11T10:10:12.545Z,46.36
2022-08-11T10:14:30.792Z,46.38
2022-08-11T10:16:53.054Z,46.12
2022-08-11T10:20:05.877Z,45.94
2022-08-11T10:23:31.377Z,45.68
2022-08-11T10:26:54.937Z,45.37
2022-08-11T10:30:20.657Z,45.14
2022-08-11T10:33:49.190Z,45.12
2022-08-11T10:37:04.161Z,45.04
2022-08-11T10:40:12.245Z,44.94
2022-08-11T10:44:01.578Z,44.58
2022-08-11T10:47:13.467Z,44.39
2022-08-11T10:50:37.081Z,44.48
2022-08-11T10:54:03.131Z,44.51
2022-08-11T10:57:27.866Z,44.71
2022-08-11T11:00:35.092Z,44.57
2022-08-11T11:03:41.175Z,44.46
2022-08-11T11:06:59.259Z,44.14
2022-08-11T11:10:09.313Z,44.15
2022-08-11T11:13:55.133Z,44.37
2022-08-11T11:17:19.006Z,44.17
2022-08-11T11:20:36.587Z,44.19
2022-08-11T11:23:54.295Z,43.79
2022-08-11T11:27:08.900Z,43.70
2022-08-11T11:30:15.670Z,43.78
2022-08-11T11:33:29.837Z,43.80
2022-08-11T11:36:46.104Z,43.97
2022-08-11T11:39:52.242Z,43.85
2022-08-11T11:43:00.546Z,44.21
2022-08-11T11:46:11.094Z,44.98
2022-08-11T11:49:18.752Z,45.69
2022-08-11T11:52:25.158Z,46.07
2022-08-11T11:55:31.656Z,46.53
2022-08-11T11:58:56.445Z,47.08
2022-08-11T12:02:11.692Z,47.38
2022-08-11T12:05:19.341Z,47.70
2022-08-11T12:08:28.125Z,47.82
2022-08-11T12:11:52.117Z,48.08
2022-08-11T12:14:58.381Z,47.98
2022-08-11T12:18:04.960Z,48.20
2022-08-11T12:21:11.303Z,48.03
2022-08-11T12:24:45.816Z,47.28
2022-08-11T12:27:54.003Z,47.43
2022-08-11T12:31:00.074Z,47.39
2022-08-11T12:34:07.881Z,47.56
2022-08-11T12:37:14.958Z,47.26
2022-08-11T12:41:11.815Z,47.21
2022-08-11T12:44:30.788Z,47.21
2022-08-11T12:48:37.831Z,47.22
2022-08-11T12:52:01.543Z,47.45
2022-08-11T12:55:14.069Z,47.53
2022-08-11T12:58:21.279Z,47.65
2022-08-11T13:01:44.791Z,47.85
2022-08-11T13:04:59.475Z,47.91
2022-08-11T13:08:06.931Z,47.92
2022-08-11T13:11:56.720Z,48.10
2022-08-11T13:14:57.421Z,48.04
2022-08-11T13:18:04.628Z,48.13
2022-08-11T13:21:10.960Z,48.15
2022-08-11T13:24:18.631Z,47.94
2022-08-11T13:27:25.499Z,48.03
2022-08-11T13:30:50.420Z,48.14
2022-08-11T13:33:56.561Z,48.28
2022-08-11T13:37:05.342Z,48.73
2022-08-11T13:40:13.769Z,48.76
2022-08-11T13:43:21.161Z,48.52
2022-08-11T13:46:28.704Z,48.39
2022-08-11T13:49:39.970Z,48.64
2022-08-11T13:52:53.161Z,48.06
2022-08-11T13:56:01.110Z,48.11
2022-08-11T13:59:08.269Z,48.12
2022-08-11T14:02:22.744Z,48.12
2022-08-11T14:05:39.252Z,47.77
2022-08-11T14:08:47.414Z,47.94
2022-08-11T14:12:22.703Z,48.18
2022-08-11T14:15:33.161Z,47.62
2022-08-11T14:18:41.237Z,47.33
2022-08-11T14:22:07.856Z,47.74
2022-08-11T14:25:16.862Z,47.35
2022-08-11T14:28:31.146Z,47.10
2022-08-11T14:31:44.776Z,47.05
2022-08-11T14:34:51.443Z,46.97
2022-08-11T14:38:00.368Z,47.08
2022-08-11T14:41:29.719Z,47.21
2022-08-11T14:44:58.224Z,46.99
2022-08-11T14:48:06.592Z,46.71
2022-08-11T14:51:12.362Z,46.74
2022-08-11T14:54:36.209Z,46.63
2022-08-11T14:57:55.519Z,46.47
2022-08-11T15:01:24.875Z,46.33
2022-08-11T15:04:36.256Z,46.17
2022-08-11T15:07:42.739Z,46.07
2022-08-11T15:10:50.470Z,46.26
2022-08-11T15:13:59.735Z,46.19
2022-08-11T15:17:09.201Z,45.95
2022-08-11T15:20:36.626Z,45.80
2022-08-11T15:24:00.843Z,45.75
2022-08-11T15:27:28.172Z,45.68
2022-08-11T15:30:52.773Z,45.47
2022-08-11T15:34:19.213Z,45.42
2022-08-11T15:37:29.644Z,45.28
2022-08-11T15:40:57.852Z,45.31
2022-08-11T15:44:44.635Z,45.06
2022-08-11T15:48:05.057Z,45.00
2022-08-11T15:51:15.656Z,44.83
2022-08-11T15:54:24.867Z,44.96
2022-08-11T15:57:48.891Z,44.81
2022-08-11T16:01:13.841Z,44.68
2022-08-11T16:04:25.080Z,44.69
2022-08-11T16:07:36.375Z,44.67
2022-08-11T16:10:47.371Z,44.74
2022-08-11T16:14:14.318Z,44.73
2022-08-11T16:17:22.492Z,44.86
2022-08-11T16:20:30.341Z,44.82
2022-08-11T16:23:36.604Z,44.89
2022-08-11T16:27:11.571Z,44.97
2022-08-11T16:30:13.785Z,45.28
2022-08-11T16:33:49.492Z,45.52
2022-08-11T16:37:04.752Z,45.72
2022-08-11T16:40:13.218Z,45.95
2022-08-11T16:43:39.895Z,46.27
2022-08-11T16:47:00.920Z,46.32
2022-08-11T16:50:08.716Z,46.39
2022-08-11T16:53:15.460Z,46.64
2022-08-11T16:56:24.382Z,46.82
2022-08-11T16:59:34.876Z,46.91
2022-08-11T17:03:03.496Z,47.14
2022-08-11T17:06:30.224Z,47.31
2022-08-11T17:09:57.475Z,47.47
2022-08-11T17:13:12.191Z,47.59
2022-08-11T17:16:25.015Z,47.79
2022-08-11T17:20:42.363Z,47.91
2022-08-11T17:23:26.518Z,48.11
2022-08-11T17:26:57.206Z,48.35
2022-08-11T17:30:07.431Z,48.51
2022-08-11T17:33:32.699Z,48.59
2022-08-11T17:36:45.116Z,49.00
2022-08-11T17:39:53.494Z,49.38
2022-08-11T17:43:24.657Z,49.74
2022-08-11T17:46:48.820Z,49.97
2022-08-11T17:49:55.793Z,50.48
2022-08-11T17:53:35.035Z,50.60
2022-08-11T17:56:58.292Z,50.91
2022-08-11T18:00:07.256Z,51.19
2022-08-11T18:03:34.037Z,51.41
2022-08-11T18:06:41.637Z,51.58
2022-08-11T18:10:05.053Z,51.83
2022-08-11T18:13:29.186Z,52.06
2022-08-11T18:16:52.541Z,52.16
2022-08-11T18:20:16.064Z,52.43
2022-08-11T18:23:46.649Z,52.68
2022-08-11T18:27:12.481Z,52.77
2022-08-11T18:30:34.825Z,53.10
2022-08-11T18:34:07.642Z,53.15
2022-08-11T18:37:35.489Z,53.41
2022-08-11T18:40:59.446Z,53.64
2022-08-11T18:44:27.346Z,53.94
2022-08-11T18:47:53.429Z,54.18
2022-08-11T18:51:36.259Z,54.52
2022-08-11T18:55:03.396Z,54.76
2022-08-11T18:58:29.569Z,55.00
2022-08-11T19:01:56.784Z,55.22
2022-08-11T19:05:20.979Z,55.47
2022-08-11T19:09:12.358Z,55.81
2022-08-11T19:12:36.876Z,56.19
2022-08-11T19:16:01.999Z,56.42
2022-08-11T19:19:33.065Z,56.76
2022-08-11T19:22:56.953Z,56.95
2022-08-11T19:26:21.872Z,56.95
2022-08-11T19:30:05.048Z,57.37
2022-08-11T19:34:02.971Z,57.72
2022-08-11T19:37:15.064Z,58.15
2022-08-11T19:40:38.908Z,58.35
2022-08-11T19:44:06.092Z,58.40
2022-08-11T19:47:29.863Z,58.64
2022-08-11T19:50:54.540Z,58.70
2022-08-11T19:54:18.886Z,58.91
2022-08-11T19:57:44.277Z,59.26
2022-08-11T20:01:08.064Z,59.46
2022-08-11T20:04:31.807Z,59.55
2022-08-11T20:07:56.453Z,59.63
2022-08-11T20:11:20.842Z,59.79
2022-08-11T20:14:46.776Z,59.77
2022-08-11T20:18:10.619Z,59.93
2022-08-11T20:21:34.497Z,60.03
2022-08-11T20:24:59.545Z,60.11
2022-08-11T20:28:24.779Z,60.23
2022-08-11T20:31:48.780Z,60.21
2022-08-11T20:35:14.301Z,60.43
2022-08-11T20:38:37.213Z,60.54
2022-08-11T20:42:01.432Z,60.65
2022-08-11T20:45:26.853Z,60.72
2022-08-11T20:48:52.472Z,60.85
2022-08-11T20:52:14.479Z,60.88
2022-08-11T20:55:51.932Z,61.06
2022-08-11T20:59:22.108Z,61.19
2022-08-11T21:02:50.070Z,61.20
2022-08-11T21:06:14.429Z,61.20
2022-08-11T21:09:58.564Z,61.46
2022-08-11T21:13:34.287Z,61.67
2022-08-11T21:17:27.197Z,61.78
2022-08-11T21:20:48.169Z,61.85
2022-08-11T21:24:16.699Z,61.88
2022-08-11T21:27:40.740Z,61.88
2022-08-11T21:31:04.667Z,61.99
2022-08-11T21:34:29.450Z,62.12
2022-08-11T21:37:54.199Z,62.22
2022-08-11T21:41:19.176Z,62.27
2022-08-11T21:44:44.508Z,62.32
2022-08-11T21:48:09.956Z,62.50
2022-08-11T21:51:33.342Z,62.56
2022-08-11T21:54:57.760Z,62.73
2022-08-11T21:58:21.876Z,62.74
2022-08-11T22:01:46.366Z,62.82
2022-08-11T22:05:09.994Z,62.93
2022-08-11T22:08:34.930Z,62.92
2022-08-11T22:12:30.034Z,62.95
2022-08-11T22:15:41.768Z,63.02
2022-08-11T22:19:06.288Z,63.04
2022-08-11T22:22:31.807Z,63.13
2022-08-11T22:25:59.806Z,63.25
2022-08-11T22:29:50.552Z,63.32
2022-08-11T22:33:08.801Z,63.36
2022-08-11T22:36:34.050Z,63.43
2022-08-11T22:40:02.208Z,63.42
2022-08-11T22:43:26.519Z,63.46
2022-08-11T22:46:52.215Z,63.54
2022-08-11T22:50:16.032Z,63.51
2022-08-11T22:53:58.576Z,63.71
2022-08-11T22:57:23.234Z,63.80
2022-08-11T23:00:47.221Z,63.94
2022-08-11T23:04:11.486Z,63.96
2022-08-11T23:07:49.720Z,63.96
2022-08-11T23:11:16.817Z,64.08
2022-08-11T23:14:41.050Z,64.10
2022-08-11T23:18:05.813Z,64.21
2022-08-11T23:21:30.283Z,64.23
2022-08-11T23:24:54.126Z,64.21
2022-08-11T23:28:19.921Z,64.41
2022-08-11T23:31:50.978Z,64.37
2022-08-11T23:35:38.128Z,64.51
2022-08-11T23:39:02.403Z,64.55
2022-08-11T23:42:26.116Z,64.55
2022-08-11T23:45:51.392Z,64.61
2022-08-11T23:49:20.172Z,64.72
2022-08-11T23:52:44.460Z,64.72
2022-08-11T23:56:08.375Z,64.82
2022-08-11T23:59:32.692Z,64.83
